sensor_id;sensor_type;location;lat;lon;timestamp;P1;durP1;ratioP1;P2;durP2;ratioP2
56329;SDS011;42236;48.058;10.632;2023-04-03T00:00:01;2.83;;;2.50;;
56329;SDS011;42236;48.058;10.632;2023-04-03T00:02:47;2.47;;;2.27;;
56329;SDS011;42236;48.058;10.632;2023-04-03T00:05:33;2.93;;;2.67;;
56329;SDS011;42236;48.058;10.632;2023-04-03T00:08:19;3.53;;;2.80;;
56329;SDS011;42236;48.058;10.632;2023-04-03T00:11:05;2.90;;;2.60;;
56329;SDS011;42236;48.058;10.632;2023-04-03T00:13:51;2.70;;;2.50;;
56329;SDS011;42236;48.058;10.632;2023-04-03T00:16:37;3.23;;;2.83;;
56329;SDS011;42236;48.058;10.632;2023-04-03T00:19:22;3.33;;;2.33;;
56329;SDS011;42236;48.058;10.632;2023-04-03T00:22:08;7.13;;;2.77;;
56329;SDS011;42236;48.058;10.632;2023-04-03T00:24:54;2.90;;;2.63;;
56329;SDS011;42236;48.058;10.632;2023-04-03T00:27:40;3.87;;;3.07;;
56329;SDS011;42236;48.058;10.632;2023-04-03T00:30:26;8.27;;;3.10;;
56329;SDS011;42236;48.058;10.632;2023-04-03T00:33:12;3.67;;;3.37;;
56329;SDS011;42236;48.058;10.632;2023-04-03T00:35:58;3.87;;;3.30;;
56329;SDS011;42236;48.058;10.632;2023-04-03T00:38:44;5.10;;;3.53;;
56329;SDS011;42236;48.058;10.632;2023-04-03T00:41:29;5.47;;;3.83;;
56329;SDS011;42236;48.058;10.632;2023-04-03T00:44:22;2.83;;;2.50;;
56329;SDS011;42236;48.058;10.632;2023-04-03T00:47:15;5.37;;;3.70;;
56329;SDS011;42236;48.058;10.632;2023-04-03T00:50:02;4.73;;;4.13;;
56329;SDS011;42236;48.058;10.632;2023-04-03T00:52:49;6.20;;;3.97;;
56329;SDS011;42236;48.058;10.632;2023-04-03T00:55:35;5.17;;;4.10;;
56329;SDS011;42236;48.058;10.632;2023-04-03T00:58:26;7.10;;;4.63;;
56329;SDS011;42236;48.058;10.632;2023-04-03T01:01:23;5.27;;;4.17;;
56329;SDS011;42236;48.058;10.632;2023-04-03T01:04:26;6.13;;;4.20;;
56329;SDS011;42236;48.058;10.632;2023-04-03T01:07:17;5.97;;;4.30;;
56329;SDS011;42236;48.058;10.632;2023-04-03T01:10:07;6.40;;;4.63;;
56329;SDS011;42236;48.058;10.632;2023-04-03T01:12:55;6.63;;;5.20;;
56329;SDS011;42236;48.058;10.632;2023-04-03T01:15:41;8.50;;;5.33;;
56329;SDS011;42236;48.058;10.632;2023-04-03T01:18:27;9.27;;;5.23;;
56329;SDS011;42236;48.058;10.632;2023-04-03T01:24:34;6.93;;;4.77;;
56329;SDS011;42236;48.058;10.632;2023-04-03T01:27:23;6.07;;;5.07;;
56329;SDS011;42236;48.058;10.632;2023-04-03T01:30:09;5.00;;;4.50;;
56329;SDS011;42236;48.058;10.632;2023-04-03T01:32:56;6.13;;;4.73;;
56329;SDS011;42236;48.058;10.632;2023-04-03T01:35:42;5.63;;;4.53;;
56329;SDS011;42236;48.058;10.632;2023-04-03T01:38:28;6.70;;;4.27;;
56329;SDS011;42236;48.058;10.632;2023-04-03T01:41:14;4.10;;;3.70;;
56329;SDS011;42236;48.058;10.632;2023-04-03T01:44:00;3.63;;;3.33;;
56329;SDS011;42236;48.058;10.632;2023-04-03T01:46:46;4.97;;;4.43;;
56329;SDS011;42236;48.058;10.632;2023-04-03T01:49:32;4.53;;;3.47;;
56329;SDS011;42236;48.058;10.632;2023-04-03T01:52:18;6.17;;;3.27;;
56329;SDS011;42236;48.058;10.632;2023-04-03T01:55:04;5.47;;;3.93;;
56329;SDS011;42236;48.058;10.632;2023-04-03T01:57:50;3.47;;;3.17;;
56329;SDS011;42236;48.058;10.632;2023-04-03T02:00:35;5.70;;;3.73;;
56329;SDS011;42236;48.058;10.632;2023-04-03T02:03:21;4.00;;;3.60;;
56329;SDS011;42236;48.058;10.632;2023-04-03T02:06:07;3.70;;;3.33;;
56329;SDS011;42236;48.058;10.632;2023-04-03T02:08:53;3.07;;;2.77;;
56329;SDS011;42236;48.058;10.632;2023-04-03T02:11:39;3.73;;;2.53;;
56329;SDS011;42236;48.058;10.632;2023-04-03T02:14:25;3.63;;;2.53;;
56329;SDS011;42236;48.058;10.632;2023-04-03T02:17:12;3.87;;;3.20;;
56329;SDS011;42236;48.058;10.632;2023-04-03T02:19:58;6.37;;;3.30;;
56329;SDS011;42236;48.058;10.632;2023-04-03T02:22:43;2.73;;;2.40;;
56329;SDS011;42236;48.058;10.632;2023-04-03T02:25:32;2.83;;;2.10;;
56329;SDS011;42236;48.058;10.632;2023-04-03T02:28:18;4.83;;;2.70;;
56329;SDS011;42236;48.058;10.632;2023-04-03T02:31:04;2.60;;;2.40;;
56329;SDS011;42236;48.058;10.632;2023-04-03T02:33:51;3.63;;;2.20;;
56329;SDS011;42236;48.058;10.632;2023-04-03T02:36:37;2.70;;;2.13;;
56329;SDS011;42236;48.058;10.632;2023-04-03T02:39:23;2.63;;;1.87;;
56329;SDS011;42236;48.058;10.632;2023-04-03T02:42:09;3.40;;;2.17;;
56329;SDS011;42236;48.058;10.632;2023-04-03T02:44:55;2.53;;;2.20;;
56329;SDS011;42236;48.058;10.632;2023-04-03T02:47:40;4.43;;;2.10;;
56329;SDS011;42236;48.058;10.632;2023-04-03T02:50:26;3.40;;;2.63;;
56329;SDS011;42236;48.058;10.632;2023-04-03T02:53:12;5.47;;;2.87;;
56329;SDS011;42236;48.058;10.632;2023-04-03T02:55:57;4.53;;;3.00;;
56329;SDS011;42236;48.058;10.632;2023-04-03T02:58:43;3.20;;;2.90;;
56329;SDS011;42236;48.058;10.632;2023-04-03T03:01:29;2.47;;;2.27;;
56329;SDS011;42236;48.058;10.632;2023-04-03T03:04:17;5.47;;;3.37;;
56329;SDS011;42236;48.058;10.632;2023-04-03T03:07:03;3.13;;;2.63;;
56329;SDS011;42236;48.058;10.632;2023-04-03T03:09:49;2.87;;;2.53;;
56329;SDS011;42236;48.058;10.632;2023-04-03T03:12:35;3.67;;;2.50;;
56329;SDS011;42236;48.058;10.632;2023-04-03T03:15:21;3.30;;;2.30;;
56329;SDS011;42236;48.058;10.632;2023-04-03T03:18:06;4.23;;;2.20;;
56329;SDS011;42236;48.058;10.632;2023-04-03T03:20:53;3.20;;;2.00;;
56329;SDS011;42236;48.058;10.632;2023-04-03T03:23:39;3.13;;;2.57;;
56329;SDS011;42236;48.058;10.632;2023-04-03T03:26:25;3.30;;;2.70;;
56329;SDS011;42236;48.058;10.632;2023-04-03T03:29:11;2.80;;;2.37;;
56329;SDS011;42236;48.058;10.632;2023-04-03T03:31:57;3.50;;;2.07;;
56329;SDS011;42236;48.058;10.632;2023-04-03T03:34:42;4.53;;;2.13;;
56329;SDS011;42236;48.058;10.632;2023-04-03T03:37:28;1.83;;;1.70;;
56329;SDS011;42236;48.058;10.632;2023-04-03T03:40:14;5.13;;;1.77;;
56329;SDS011;42236;48.058;10.632;2023-04-03T03:42:59;3.17;;;1.80;;
56329;SDS011;42236;48.058;10.632;2023-04-03T03:45:46;4.50;;;2.23;;
56329;SDS011;42236;48.058;10.632;2023-04-03T03:48:35;2.33;;;1.87;;
56329;SDS011;42236;48.058;10.632;2023-04-03T03:51:21;2.40;;;1.77;;
56329;SDS011;42236;48.058;10.632;2023-04-03T03:54:06;1.90;;;1.80;;
56329;SDS011;42236;48.058;10.632;2023-04-03T03:56:52;2.73;;;1.90;;
56329;SDS011;42236;48.058;10.632;2023-04-03T03:59:38;2.53;;;2.13;;
56329;SDS011;42236;48.058;10.632;2023-04-03T04:02:25;3.67;;;1.83;;
56329;SDS011;42236;48.058;10.632;2023-04-03T04:05:11;5.27;;;1.90;;
56329;SDS011;42236;48.058;10.632;2023-04-03T04:07:57;1.83;;;1.57;;
56329;SDS011;42236;48.058;10.632;2023-04-03T04:10:42;2.80;;;2.13;;
56329;SDS011;42236;48.058;10.632;2023-04-03T04:13:28;3.70;;;2.33;;
56329;SDS011;42236;48.058;10.632;2023-04-03T04:16:13;2.87;;;2.03;;
56329;SDS011;42236;48.058;10.632;2023-04-03T04:18:59;2.87;;;1.67;;
56329;SDS011;42236;48.058;10.632;2023-04-03T04:21:45;2.47;;;2.00;;
56329;SDS011;42236;48.058;10.632;2023-04-03T04:24:30;2.20;;;1.80;;
56329;SDS011;42236;48.058;10.632;2023-04-03T04:27:16;1.97;;;1.57;;
56329;SDS011;42236;48.058;10.632;2023-04-03T04:30:03;4.07;;;2.27;;
56329;SDS011;42236;48.058;10.632;2023-04-03T04:32:49;2.43;;;2.00;;
56329;SDS011;42236;48.058;10.632;2023-04-03T04:35:35;2.20;;;1.67;;
56329;SDS011;42236;48.058;10.632;2023-04-03T04:38:21;2.43;;;1.70;;
56329;SDS011;42236;48.058;10.632;2023-04-03T04:41:07;1.83;;;1.70;;
56329;SDS011;42236;48.058;10.632;2023-04-03T04:43:52;2.13;;;1.73;;
56329;SDS011;42236;48.058;10.632;2023-04-03T04:46:38;3.20;;;2.17;;
56329;SDS011;42236;48.058;10.632;2023-04-03T04:49:24;3.37;;;1.53;;
56329;SDS011;42236;48.058;10.632;2023-04-03T04:52:09;4.17;;;1.60;;
56329;SDS011;42236;48.058;10.632;2023-04-03T04:54:55;2.27;;;2.07;;
56329;SDS011;42236;48.058;10.632;2023-04-03T04:57:41;1.83;;;1.57;;
56329;SDS011;42236;48.058;10.632;2023-04-03T05:00:26;3.00;;;1.90;;
56329;SDS011;42236;48.058;10.632;2023-04-03T05:03:12;2.00;;;1.80;;
56329;SDS011;42236;48.058;10.632;2023-04-03T05:05:58;2.80;;;1.67;;
56329;SDS011;42236;48.058;10.632;2023-04-03T05:08:44;2.70;;;2.07;;
56329;SDS011;42236;48.058;10.632;2023-04-03T05:11:29;2.83;;;1.77;;
56329;SDS011;42236;48.058;10.632;2023-04-03T05:14:15;2.00;;;1.80;;
56329;SDS011;42236;48.058;10.632;2023-04-03T05:17:01;6.87;;;1.87;;
56329;SDS011;42236;48.058;10.632;2023-04-03T05:19:47;2.83;;;2.33;;
56329;SDS011;42236;48.058;10.632;2023-04-03T05:22:33;4.27;;;2.77;;
56329;SDS011;42236;48.058;10.632;2023-04-03T05:25:18;4.13;;;2.40;;
56329;SDS011;42236;48.058;10.632;2023-04-03T05:28:04;3.23;;;2.43;;
56329;SDS011;42236;48.058;10.632;2023-04-03T05:30:54;4.57;;;2.33;;
56329;SDS011;42236;48.058;10.632;2023-04-03T05:33:40;2.57;;;2.00;;
56329;SDS011;42236;48.058;10.632;2023-04-03T05:36:26;3.83;;;2.20;;
56329;SDS011;42236;48.058;10.632;2023-04-03T05:39:12;1.67;;;1.33;;
56329;SDS011;42236;48.058;10.632;2023-04-03T05:41:57;2.00;;;1.63;;
56329;SDS011;42236;48.058;10.632;2023-04-03T05:44:43;3.07;;;1.60;;
56329;SDS011;42236;48.058;10.632;2023-04-03T05:47:31;2.63;;;2.03;;
56329;SDS011;42236;48.058;10.632;2023-04-03T05:50:16;2.90;;;2.20;;
56329;SDS011;42236;48.058;10.632;2023-04-03T05:53:02;1.67;;;1.57;;
56329;SDS011;42236;48.058;10.632;2023-04-03T05:55:49;2.10;;;1.90;;
56329;SDS011;42236;48.058;10.632;2023-04-03T05:58:34;2.70;;;1.83;;
56329;SDS011;42236;48.058;10.632;2023-04-03T06:01:20;2.47;;;2.20;;
56329;SDS011;42236;48.058;10.632;2023-04-03T06:04:06;2.43;;;2.23;;
56329;SDS011;42236;48.058;10.632;2023-04-03T06:06:55;2.13;;;1.93;;
56329;SDS011;42236;48.058;10.632;2023-04-03T06:09:43;2.50;;;1.63;;
56329;SDS011;42236;48.058;10.632;2023-04-03T06:12:29;3.40;;;1.97;;
56329;SDS011;42236;48.058;10.632;2023-04-03T06:15:15;3.30;;;2.20;;
56329;SDS011;42236;48.058;10.632;2023-04-03T06:18:02;3.07;;;2.03;;
56329;SDS011;42236;48.058;10.632;2023-04-03T06:20:48;2.07;;;1.67;;
56329;SDS011;42236;48.058;10.632;2023-04-03T06:23:33;4.60;;;1.87;;
56329;SDS011;42236;48.058;10.632;2023-04-03T06:26:19;5.03;;;1.90;;
56329;SDS011;42236;48.058;10.632;2023-04-03T06:29:06;2.80;;;2.10;;
56329;SDS011;42236;48.058;10.632;2023-04-03T06:31:52;2.50;;;1.87;;
56329;SDS011;42236;48.058;10.632;2023-04-03T06:34:38;1.40;;;1.30;;
56329;SDS011;42236;48.058;10.632;2023-04-03T06:37:23;1.93;;;1.53;;
56329;SDS011;42236;48.058;10.632;2023-04-03T06:40:18;2.97;;;2.60;;
56329;SDS011;42236;48.058;10.632;2023-04-03T06:43:07;9.50;;;3.23;;
56329;SDS011;42236;48.058;10.632;2023-04-03T06:45:53;6.50;;;3.43;;
56329;SDS011;42236;48.058;10.632;2023-04-03T06:48:39;1.63;;;1.53;;
56329;SDS011;42236;48.058;10.632;2023-04-03T06:51:26;4.13;;;2.47;;
56329;SDS011;42236;48.058;10.632;2023-04-03T06:54:12;1.73;;;1.40;;
56329;SDS011;42236;48.058;10.632;2023-04-03T06:57:00;3.77;;;2.43;;
56329;SDS011;42236;48.058;10.632;2023-04-03T06:59:45;2.03;;;1.63;;
56329;SDS011;42236;48.058;10.632;2023-04-03T07:02:31;2.43;;;2.20;;
56329;SDS011;42236;48.058;10.632;2023-04-03T07:05:17;4.10;;;1.80;;
56329;SDS011;42236;48.058;10.632;2023-04-03T07:08:03;1.60;;;1.50;;
56329;SDS011;42236;48.058;10.632;2023-04-03T07:10:49;2.97;;;2.00;;
56329;SDS011;42236;48.058;10.632;2023-04-03T07:13:36;2.33;;;1.73;;
56329;SDS011;42236;48.058;10.632;2023-04-03T07:16:22;2.20;;;1.67;;
56329;SDS011;42236;48.058;10.632;2023-04-03T07:19:07;2.57;;;1.77;;
56329;SDS011;42236;48.058;10.632;2023-04-03T07:21:54;3.13;;;2.13;;
56329;SDS011;42236;48.058;10.632;2023-04-03T07:24:40;3.17;;;2.17;;
56329;SDS011;42236;48.058;10.632;2023-04-03T07:27:25;3.00;;;1.43;;
56329;SDS011;42236;48.058;10.632;2023-04-03T07:30:11;6.70;;;2.67;;
56329;SDS011;42236;48.058;10.632;2023-04-03T07:32:59;4.50;;;2.77;;
56329;SDS011;42236;48.058;10.632;2023-04-03T07:35:45;2.67;;;2.00;;
56329;SDS011;42236;48.058;10.632;2023-04-03T07:38:31;3.27;;;2.63;;
56329;SDS011;42236;48.058;10.632;2023-04-03T07:41:17;2.70;;;2.13;;
56329;SDS011;42236;48.058;10.632;2023-04-03T07:44:05;2.23;;;1.90;;
56329;SDS011;42236;48.058;10.632;2023-04-03T07:46:51;1.53;;;1.40;;
56329;SDS011;42236;48.058;10.632;2023-04-03T07:49:36;1.90;;;1.80;;
56329;SDS011;42236;48.058;10.632;2023-04-03T07:52:24;3.47;;;2.00;;
56329;SDS011;42236;48.058;10.632;2023-04-03T07:55:11;4.67;;;2.30;;
56329;SDS011;42236;48.058;10.632;2023-04-03T07:57:56;3.47;;;2.30;;
56329;SDS011;42236;48.058;10.632;2023-04-03T08:00:42;1.97;;;1.80;;
56329;SDS011;42236;48.058;10.632;2023-04-03T08:03:29;2.03;;;1.83;;
56329;SDS011;42236;48.058;10.632;2023-04-03T08:06:15;1.70;;;1.60;;
56329;SDS011;42236;48.058;10.632;2023-04-03T08:09:01;5.37;;;2.20;;
56329;SDS011;42236;48.058;10.632;2023-04-03T08:11:49;2.40;;;1.50;;
56329;SDS011;42236;48.058;10.632;2023-04-03T08:14:38;2.83;;;2.00;;
56329;SDS011;42236;48.058;10.632;2023-04-03T08:17:23;3.50;;;2.07;;
56329;SDS011;42236;48.058;10.632;2023-04-03T08:20:09;2.53;;;2.30;;
56329;SDS011;42236;48.058;10.632;2023-04-03T08:22:55;2.30;;;1.87;;
56329;SDS011;42236;48.058;10.632;2023-04-03T08:25:41;2.30;;;1.50;;
56329;SDS011;42236;48.058;10.632;2023-04-03T08:28:27;2.17;;;1.97;;
56329;SDS011;42236;48.058;10.632;2023-04-03T08:31:14;3.17;;;2.10;;
56329;SDS011;42236;48.058;10.632;2023-04-03T08:34:02;3.07;;;1.80;;
56329;SDS011;42236;48.058;10.632;2023-04-03T08:36:47;4.87;;;2.07;;
56329;SDS011;42236;48.058;10.632;2023-04-03T08:39:33;2.63;;;2.37;;
56329;SDS011;42236;48.058;10.632;2023-04-03T08:42:33;3.40;;;2.30;;
56329;SDS011;42236;48.058;10.632;2023-04-03T08:48:27;2.33;;;1.80;;
56329;SDS011;42236;48.058;10.632;2023-04-03T08:51:19;3.80;;;1.80;;
56329;SDS011;42236;48.058;10.632;2023-04-03T08:54:07;2.00;;;1.80;;
56329;SDS011;42236;48.058;10.632;2023-04-03T08:57:13;3.30;;;2.30;;
56329;SDS011;42236;48.058;10.632;2023-04-03T09:00:00;3.93;;;1.70;;
56329;SDS011;42236;48.058;10.632;2023-04-03T09:02:51;3.10;;;1.83;;
56329;SDS011;42236;48.058;10.632;2023-04-03T09:08:27;2.97;;;1.70;;
56329;SDS011;42236;48.058;10.632;2023-04-03T09:11:52;1.73;;;1.60;;
56329;SDS011;42236;48.058;10.632;2023-04-03T09:14:51;3.30;;;1.77;;
56329;SDS011;42236;48.058;10.632;2023-04-03T09:23:53;2.67;;;1.60;;
56329;SDS011;42236;48.058;10.632;2023-04-03T09:26:48;3.80;;;1.70;;
56329;SDS011;42236;48.058;10.632;2023-04-03T09:29:47;2.93;;;1.93;;
56329;SDS011;42236;48.058;10.632;2023-04-03T09:32:37;3.07;;;1.50;;
56329;SDS011;42236;48.058;10.632;2023-04-03T09:35:24;1.97;;;1.53;;
56329;SDS011;42236;48.058;10.632;2023-04-03T09:41:07;2.07;;;1.50;;
56329;SDS011;42236;48.058;10.632;2023-04-03T09:44:00;3.00;;;1.40;;
56329;SDS011;42236;48.058;10.632;2023-04-03T09:46:46;1.53;;;1.43;;
56329;SDS011;42236;48.058;10.632;2023-04-03T09:49:32;1.13;;;1.10;;
56329;SDS011;42236;48.058;10.632;2023-04-03T09:52:27;2.83;;;1.30;;
56329;SDS011;42236;48.058;10.632;2023-04-03T09:55:14;1.60;;;1.50;;
56329;SDS011;42236;48.058;10.632;2023-04-03T09:58:04;1.40;;;1.30;;
56329;SDS011;42236;48.058;10.632;2023-04-03T10:01:08;2.47;;;1.60;;
56329;SDS011;42236;48.058;10.632;2023-04-03T10:04:12;2.23;;;1.40;;
56329;SDS011;42236;48.058;10.632;2023-04-03T10:06:59;1.90;;;1.37;;
56329;SDS011;42236;48.058;10.632;2023-04-03T10:09:47;2.97;;;1.80;;
56329;SDS011;42236;48.058;10.632;2023-04-03T10:12:43;2.30;;;1.37;;
56329;SDS011;42236;48.058;10.632;2023-04-03T10:15:29;2.37;;;2.13;;
56329;SDS011;42236;48.058;10.632;2023-04-03T10:27:42;1.93;;;1.83;;
56329;SDS011;42236;48.058;10.632;2023-04-03T10:30:50;3.93;;;1.57;;
56329;SDS011;42236;48.058;10.632;2023-04-03T10:36:46;1.60;;;1.47;;
56329;SDS011;42236;48.058;10.632;2023-04-03T10:39:45;2.33;;;1.50;;
56329;SDS011;42236;48.058;10.632;2023-04-03T10:46:02;2.67;;;1.57;;
56329;SDS011;42236;48.058;10.632;2023-04-03T10:52:37;1.67;;;1.50;;
56329;SDS011;42236;48.058;10.632;2023-04-03T10:55:34;1.63;;;1.27;;
56329;SDS011;42236;48.058;10.632;2023-04-03T10:58:26;3.00;;;1.63;;
56329;SDS011;42236;48.058;10.632;2023-04-03T11:01:31;1.17;;;1.10;;
56329;SDS011;42236;48.058;10.632;2023-04-03T11:04:20;1.83;;;1.43;;
56329;SDS011;42236;48.058;10.632;2023-04-03T11:07:14;3.43;;;1.80;;
56329;SDS011;42236;48.058;10.632;2023-04-03T11:10:14;4.20;;;1.57;;
56329;SDS011;42236;48.058;10.632;2023-04-03T11:16:16;2.30;;;1.30;;
56329;SDS011;42236;48.058;10.632;2023-04-03T11:22:10;3.03;;;1.50;;
56329;SDS011;42236;48.058;10.632;2023-04-03T11:27:59;2.03;;;1.30;;
56329;SDS011;42236;48.058;10.632;2023-04-03T11:36:56;2.03;;;1.60;;
56329;SDS011;42236;48.058;10.632;2023-04-03T11:39:48;1.90;;;1.33;;
56329;SDS011;42236;48.058;10.632;2023-04-03T11:42:40;1.87;;;1.17;;
56329;SDS011;42236;48.058;10.632;2023-04-03T11:45:40;2.40;;;1.00;;
56329;SDS011;42236;48.058;10.632;2023-04-03T11:48:42;1.93;;;1.47;;
56329;SDS011;42236;48.058;10.632;2023-04-03T11:54:49;2.07;;;1.77;;
56329;SDS011;42236;48.058;10.632;2023-04-03T11:57:46;2.17;;;1.67;;
56329;SDS011;42236;48.058;10.632;2023-04-03T12:03:56;1.63;;;1.50;;
56329;SDS011;42236;48.058;10.632;2023-04-03T12:09:34;1.40;;;1.30;;
56329;SDS011;42236;48.058;10.632;2023-04-03T12:12:28;6.00;;;1.70;;
56329;SDS011;42236;48.058;10.632;2023-04-03T12:24:26;1.80;;;1.63;;
56329;SDS011;42236;48.058;10.632;2023-04-03T12:30:25;1.97;;;1.77;;
56329;SDS011;42236;48.058;10.632;2023-04-03T12:33:17;2.03;;;1.27;;
56329;SDS011;42236;48.058;10.632;2023-04-03T12:36:12;2.40;;;1.47;;
56329;SDS011;42236;48.058;10.632;2023-04-03T12:39:13;3.00;;;2.00;;
56329;SDS011;42236;48.058;10.632;2023-04-03T12:45:23;6.00;;;1.77;;
56329;SDS011;42236;48.058;10.632;2023-04-03T12:48:15;2.40;;;1.83;;
56329;SDS011;42236;48.058;10.632;2023-04-03T12:51:03;2.03;;;1.80;;
56329;SDS011;42236;48.058;10.632;2023-04-03T12:53:49;3.43;;;1.50;;
56329;SDS011;42236;48.058;10.632;2023-04-03T12:56:40;2.73;;;1.40;;
56329;SDS011;42236;48.058;10.632;2023-04-03T12:59:26;4.23;;;2.10;;
56329;SDS011;42236;48.058;10.632;2023-04-03T13:02:22;2.10;;;1.43;;
56329;SDS011;42236;48.058;10.632;2023-04-03T13:05:17;2.13;;;1.00;;
56329;SDS011;42236;48.058;10.632;2023-04-03T13:08:05;3.60;;;1.80;;
56329;SDS011;42236;48.058;10.632;2023-04-03T13:10:59;4.63;;;2.20;;
56329;SDS011;42236;48.058;10.632;2023-04-03T13:14:00;2.47;;;1.67;;
56329;SDS011;42236;48.058;10.632;2023-04-03T13:19:40;2.60;;;1.90;;
56329;SDS011;42236;48.058;10.632;2023-04-03T13:22:36;3.40;;;1.87;;
56329;SDS011;42236;48.058;10.632;2023-04-03T13:25:31;5.00;;;2.10;;
56329;SDS011;42236;48.058;10.632;2023-04-03T13:28:20;2.40;;;1.50;;
56329;SDS011;42236;48.058;10.632;2023-04-03T13:31:15;2.27;;;1.60;;
56329;SDS011;42236;48.058;10.632;2023-04-03T13:36:55;3.07;;;2.00;;
56329;SDS011;42236;48.058;10.632;2023-04-03T13:39:43;3.37;;;1.90;;
56329;SDS011;42236;48.058;10.632;2023-04-03T13:42:30;2.43;;;1.80;;
56329;SDS011;42236;48.058;10.632;2023-04-03T13:45:22;1.90;;;1.80;;
56329;SDS011;42236;48.058;10.632;2023-04-03T13:48:18;1.70;;;1.50;;
56329;SDS011;42236;48.058;10.632;2023-04-03T13:53:57;1.40;;;1.30;;
56329;SDS011;42236;48.058;10.632;2023-04-03T13:56:45;3.23;;;1.73;;
56329;SDS011;42236;48.058;10.632;2023-04-03T13:59:33;1.63;;;1.33;;
56329;SDS011;42236;48.058;10.632;2023-04-03T14:02:22;1.90;;;1.50;;
56329;SDS011;42236;48.058;10.632;2023-04-03T14:05:15;5.90;;;1.43;;
56329;SDS011;42236;48.058;10.632;2023-04-03T14:08:03;3.60;;;1.50;;
56329;SDS011;42236;48.058;10.632;2023-04-03T14:10:49;1.60;;;1.27;;
56329;SDS011;42236;48.058;10.632;2023-04-03T14:13:36;2.77;;;1.47;;
56329;SDS011;42236;48.058;10.632;2023-04-03T14:16:23;1.80;;;1.47;;
56329;SDS011;42236;48.058;10.632;2023-04-03T14:19:22;1.83;;;1.30;;
56329;SDS011;42236;48.058;10.632;2023-04-03T14:22:21;1.73;;;1.63;;
56329;SDS011;42236;48.058;10.632;2023-04-03T14:25:08;3.27;;;1.30;;
56329;SDS011;42236;48.058;10.632;2023-04-03T14:27:54;1.87;;;1.17;;
56329;SDS011;42236;48.058;10.632;2023-04-03T14:30:40;1.73;;;1.37;;
56329;SDS011;42236;48.058;10.632;2023-04-03T14:33:26;2.57;;;1.20;;
56329;SDS011;42236;48.058;10.632;2023-04-03T14:39:20;3.00;;;1.10;;
56329;SDS011;42236;48.058;10.632;2023-04-03T14:42:06;2.33;;;1.30;;
56329;SDS011;42236;48.058;10.632;2023-04-03T14:44:52;1.73;;;1.30;;
56329;SDS011;42236;48.058;10.632;2023-04-03T14:47:41;1.37;;;1.23;;
56329;SDS011;42236;48.058;10.632;2023-04-03T14:50:30;1.83;;;0.90;;
56329;SDS011;42236;48.058;10.632;2023-04-03T14:53:16;1.40;;;1.30;;
56329;SDS011;42236;48.058;10.632;2023-04-03T14:56:05;3.23;;;1.27;;
56329;SDS011;42236;48.058;10.632;2023-04-03T14:59:13;3.90;;;1.20;;
56329;SDS011;42236;48.058;10.632;2023-04-03T15:02:00;1.43;;;1.13;;
56329;SDS011;42236;48.058;10.632;2023-04-03T15:04:45;1.57;;;1.30;;
56329;SDS011;42236;48.058;10.632;2023-04-03T15:07:32;2.53;;;1.13;;
56329;SDS011;42236;48.058;10.632;2023-04-03T15:10:24;1.47;;;1.37;;
56329;SDS011;42236;48.058;10.632;2023-04-03T15:13:12;2.87;;;1.00;;
56329;SDS011;42236;48.058;10.632;2023-04-03T15:15:58;2.57;;;0.90;;
56329;SDS011;42236;48.058;10.632;2023-04-03T15:18:44;1.97;;;0.90;;
56329;SDS011;42236;48.058;10.632;2023-04-03T15:21:31;2.50;;;1.00;;
56329;SDS011;42236;48.058;10.632;2023-04-03T15:24:17;1.37;;;1.00;;
56329;SDS011;42236;48.058;10.632;2023-04-03T15:27:03;2.13;;;1.30;;
56329;SDS011;42236;48.058;10.632;2023-04-03T15:29:48;2.20;;;0.93;;
56329;SDS011;42236;48.058;10.632;2023-04-03T15:32:34;2.30;;;0.93;;
56329;SDS011;42236;48.058;10.632;2023-04-03T15:35:20;1.63;;;1.30;;
56329;SDS011;42236;48.058;10.632;2023-04-03T15:38:06;2.20;;;0.97;;
56329;SDS011;42236;48.058;10.632;2023-04-03T15:40:51;1.00;;;1.00;;
56329;SDS011;42236;48.058;10.632;2023-04-03T15:43:37;1.17;;;0.80;;
56329;SDS011;42236;48.058;10.632;2023-04-03T15:46:23;1.10;;;1.00;;
56329;SDS011;42236;48.058;10.632;2023-04-03T15:49:08;3.60;;;1.00;;
56329;SDS011;42236;48.058;10.632;2023-04-03T15:51:54;2.57;;;1.47;;
56329;SDS011;42236;48.058;10.632;2023-04-03T15:54:40;1.40;;;1.30;;
56329;SDS011;42236;48.058;10.632;2023-04-03T15:57:25;1.73;;;1.13;;
56329;SDS011;42236;48.058;10.632;2023-04-03T16:00:12;2.53;;;0.97;;
56329;SDS011;42236;48.058;10.632;2023-04-03T16:02:59;3.70;;;0.90;;
56329;SDS011;42236;48.058;10.632;2023-04-03T16:05:49;2.13;;;0.93;;
56329;SDS011;42236;48.058;10.632;2023-04-03T16:08:36;2.20;;;0.80;;
56329;SDS011;42236;48.058;10.632;2023-04-03T16:11:22;1.23;;;0.87;;
56329;SDS011;42236;48.058;10.632;2023-04-03T16:14:07;1.57;;;1.10;;
56329;SDS011;42236;48.058;10.632;2023-04-03T16:16:53;1.23;;;1.13;;
56329;SDS011;42236;48.058;10.632;2023-04-03T16:19:39;1.50;;;1.07;;
56329;SDS011;42236;48.058;10.632;2023-04-03T16:22:25;1.80;;;1.00;;
56329;SDS011;42236;48.058;10.632;2023-04-03T16:25:12;1.23;;;1.00;;
56329;SDS011;42236;48.058;10.632;2023-04-03T16:27:58;1.30;;;0.83;;
56329;SDS011;42236;48.058;10.632;2023-04-03T16:30:44;0.70;;;0.60;;
56329;SDS011;42236;48.058;10.632;2023-04-03T16:33:32;1.23;;;0.90;;
56329;SDS011;42236;48.058;10.632;2023-04-03T16:36:18;1.00;;;0.90;;
56329;SDS011;42236;48.058;10.632;2023-04-03T16:39:04;2.17;;;0.80;;
56329;SDS011;42236;48.058;10.632;2023-04-03T16:41:50;2.67;;;0.80;;
56329;SDS011;42236;48.058;10.632;2023-04-03T16:44:36;0.93;;;0.83;;
56329;SDS011;42236;48.058;10.632;2023-04-03T16:47:22;1.77;;;0.73;;
56329;SDS011;42236;48.058;10.632;2023-04-03T16:50:08;1.73;;;0.80;;
56329;SDS011;42236;48.058;10.632;2023-04-03T16:52:54;2.87;;;0.90;;
56329;SDS011;42236;48.058;10.632;2023-04-03T16:55:40;0.80;;;0.70;;
56329;SDS011;42236;48.058;10.632;2023-04-03T16:58:25;1.33;;;0.97;;
56329;SDS011;42236;48.058;10.632;2023-04-03T17:01:12;1.33;;;1.07;;
56329;SDS011;42236;48.058;10.632;2023-04-03T17:04:00;1.77;;;1.10;;
56329;SDS011;42236;48.058;10.632;2023-04-03T17:06:45;1.43;;;1.20;;
56329;SDS011;42236;48.058;10.632;2023-04-03T17:09:32;2.17;;;1.10;;
56329;SDS011;42236;48.058;10.632;2023-04-03T17:12:18;1.83;;;1.43;;
56329;SDS011;42236;48.058;10.632;2023-04-03T17:15:05;4.07;;;2.00;;
56329;SDS011;42236;48.058;10.632;2023-04-03T17:17:52;3.10;;;1.80;;
56329;SDS011;42236;48.058;10.632;2023-04-03T17:20:38;4.20;;;1.93;;
56329;SDS011;42236;48.058;10.632;2023-04-03T17:23:25;3.00;;;2.23;;
56329;SDS011;42236;48.058;10.632;2023-04-03T17:26:13;2.77;;;1.97;;
56329;SDS011;42236;48.058;10.632;2023-04-03T17:28:59;2.67;;;1.70;;
56329;SDS011;42236;48.058;10.632;2023-04-03T17:31:45;3.80;;;1.57;;
56329;SDS011;42236;48.058;10.632;2023-04-03T17:34:30;3.03;;;1.73;;
56329;SDS011;42236;48.058;10.632;2023-04-03T17:37:17;2.27;;;1.57;;
56329;SDS011;42236;48.058;10.632;2023-04-03T17:40:03;1.90;;;1.30;;
56329;SDS011;42236;48.058;10.632;2023-04-03T17:42:49;2.30;;;1.10;;
56329;SDS011;42236;48.058;10.632;2023-04-03T17:45:36;4.93;;;2.37;;
56329;SDS011;42236;48.058;10.632;2023-04-03T17:48:22;3.33;;;1.00;;
56329;SDS011;42236;48.058;10.632;2023-04-03T17:51:11;3.27;;;1.40;;
56329;SDS011;42236;48.058;10.632;2023-04-03T17:53:59;3.57;;;1.70;;
56329;SDS011;42236;48.058;10.632;2023-04-03T17:56:44;1.63;;;1.10;;
56329;SDS011;42236;48.058;10.632;2023-04-03T17:59:32;1.47;;;1.20;;
56329;SDS011;42236;48.058;10.632;2023-04-03T18:02:18;2.47;;;1.40;;
56329;SDS011;42236;48.058;10.632;2023-04-03T18:05:04;1.53;;;1.23;;